sensor_id;sensor_type;location;lat;lon;timestamp;P1;durP1;ratioP1;P2;durP2;ratioP2
11568;SDS011;5840;46.894;15.542;2022-07-15T00:02:24;6.47;;;6.07;;
11568;SDS011;5840;46.894;15.542;2022-07-15T00:04:51;6.60;;;6.10;;
11568;SDS011;5840;46.894;15.542;2022-07-15T00:07:18;5.60;;;5.30;;
11568;SDS011;5840;46.894;15.542;2022-07-15T00:09:46;6.43;;;5.93;;
11568;SDS011;5840;46.894;15.542;2022-07-15T00:12:32;6.17;;;5.77;;
11568;SDS011;5840;46.894;15.542;2022-07-15T00:14:59;6.20;;;5.60;;
11568;SDS011;5840;46.894;15.542;2022-07-15T00:17:26;6.40;;;6.00;;
11568;SDS011;5840;46.894;15.542;2022-07-15T00:19:53;5.53;;;5.20;;
11568;SDS011;5840;46.894;15.542;2022-07-15T00:22:20;6.50;;;6.10;;
11568;SDS011;5840;46.894;15.542;2022-07-15T00:24:47;5.90;;;5.50;;
11568;SDS011;5840;46.894;15.542;2022-07-15T00:27:14;6.40;;;6.00;;
11568;SDS011;5840;46.894;15.542;2022-07-15T00:29:42;6.50;;;6.10;;
11568;SDS011;5840;46.894;15.542;2022-07-15T00:32:09;6.03;;;5.63;;
11568;SDS011;5840;46.894;15.542;2022-07-15T00:34:37;6.53;;;6.13;;
11568;SDS011;5840;46.894;15.542;2022-07-15T00:37:04;6.70;;;6.30;;
11568;SDS011;5840;46.894;15.542;2022-07-15T00:39:31;6.23;;;5.73;;
11568;SDS011;5840;46.894;15.542;2022-07-15T00:41:58;6.80;;;6.30;;
11568;SDS011;5840;46.894;15.542;2022-07-15T00:44:26;6.57;;;6.07;;
11568;SDS011;5840;46.894;15.542;2022-07-15T00:46:54;6.50;;;6.10;;
11568;SDS011;5840;46.894;15.542;2022-07-15T00:49:21;6.30;;;6.00;;
11568;SDS011;5840;46.894;15.542;2022-07-15T00:51:49;6.80;;;6.40;;
11568;SDS011;5840;46.894;15.542;2022-07-15T00:54:19;6.80;;;6.40;;
11568;SDS011;5840;46.894;15.542;2022-07-15T00:56:50;7.07;;;6.63;;
11568;SDS011;5840;46.894;15.542;2022-07-15T00:59:19;6.70;;;6.30;;
11568;SDS011;5840;46.894;15.542;2022-07-15T01:01:48;6.80;;;6.20;;
11568;SDS011;5840;46.894;15.542;2022-07-15T01:04:18;6.63;;;6.07;;
11568;SDS011;5840;46.894;15.542;2022-07-15T01:06:47;6.80;;;6.30;;
11568;SDS011;5840;46.894;15.542;2022-07-15T01:09:14;6.17;;;5.77;;
11568;SDS011;5840;46.894;15.542;2022-07-15T01:11:41;6.03;;;5.63;;
11568;SDS011;5840;46.894;15.542;2022-07-15T01:14:08;6.37;;;5.87;;
11568;SDS011;5840;46.894;15.542;2022-07-15T01:16:35;7.70;;;7.20;;
11568;SDS011;5840;46.894;15.542;2022-07-15T01:19:02;7.07;;;6.57;;
11568;SDS011;5840;46.894;15.542;2022-07-15T01:21:31;7.03;;;6.53;;
11568;SDS011;5840;46.894;15.542;2022-07-15T01:23:58;7.30;;;6.70;;
11568;SDS011;5840;46.894;15.542;2022-07-15T01:26:25;6.83;;;6.33;;
11568;SDS011;5840;46.894;15.542;2022-07-15T01:28:52;6.30;;;5.83;;
11568;SDS011;5840;46.894;15.542;2022-07-15T01:31:19;5.83;;;5.43;;
11568;SDS011;5840;46.894;15.542;2022-07-15T01:33:46;6.30;;;5.80;;
11568;SDS011;5840;46.894;15.542;2022-07-15T01:36:12;5.33;;;5.03;;
11568;SDS011;5840;46.894;15.542;2022-07-15T01:38:41;7.27;;;5.50;;
11568;SDS011;5840;46.894;15.542;2022-07-15T01:41:08;6.63;;;5.20;;
11568;SDS011;5840;46.894;15.542;2022-07-15T01:43:35;5.13;;;4.83;;
11568;SDS011;5840;46.894;15.542;2022-07-15T01:46:01;5.07;;;4.57;;
11568;SDS011;5840;46.894;15.542;2022-07-15T01:48:28;4.90;;;4.60;;
11568;SDS011;5840;46.894;15.542;2022-07-15T01:51:13;5.00;;;4.60;;
11568;SDS011;5840;46.894;15.542;2022-07-15T01:53:41;4.77;;;4.47;;
11568;SDS011;5840;46.894;15.542;2022-07-15T01:56:08;4.77;;;4.47;;
11568;SDS011;5840;46.894;15.542;2022-07-15T01:58:35;5.13;;;4.63;;
11568;SDS011;5840;46.894;15.542;2022-07-15T02:01:02;7.30;;;4.40;;
11568;SDS011;5840;46.894;15.542;2022-07-15T02:03:29;4.53;;;4.23;;
11568;SDS011;5840;46.894;15.542;2022-07-15T02:05:56;3.77;;;3.57;;
11568;SDS011;5840;46.894;15.542;2022-07-15T02:08:24;4.10;;;3.80;;
11568;SDS011;5840;46.894;15.542;2022-07-15T02:10:52;4.40;;;3.97;;
11568;SDS011;5840;46.894;15.542;2022-07-15T02:13:19;3.70;;;3.50;;
11568;SDS011;5840;46.894;15.542;2022-07-15T02:15:46;3.97;;;3.77;;
11568;SDS011;5840;46.894;15.542;2022-07-15T02:18:14;4.00;;;3.60;;
11568;SDS011;5840;46.894;15.542;2022-07-15T02:20:40;3.83;;;3.63;;
11568;SDS011;5840;46.894;15.542;2022-07-15T02:23:07;5.07;;;3.57;;
11568;SDS011;5840;46.894;15.542;2022-07-15T02:25:35;3.70;;;3.40;;
11568;SDS011;5840;46.894;15.542;2022-07-15T02:28:04;3.67;;;3.37;;
11568;SDS011;5840;46.894;15.542;2022-07-15T02:30:32;3.13;;;2.93;;
11568;SDS011;5840;46.894;15.542;2022-07-15T02:33:01;3.63;;;3.37;;
11568;SDS011;5840;46.894;15.542;2022-07-15T02:35:29;3.33;;;3.13;;
11568;SDS011;5840;46.894;15.542;2022-07-15T02:37:57;3.40;;;3.20;;
11568;SDS011;5840;46.894;15.542;2022-07-15T02:40:25;4.33;;;3.60;;
11568;SDS011;5840;46.894;15.542;2022-07-15T02:42:53;3.37;;;3.07;;
11568;SDS011;5840;46.894;15.542;2022-07-15T02:45:23;3.73;;;3.17;;
11568;SDS011;5840;46.894;15.542;2022-07-15T02:47:51;3.77;;;3.17;;
11568;SDS011;5840;46.894;15.542;2022-07-15T02:50:19;3.63;;;3.33;;
11568;SDS011;5840;46.894;15.542;2022-07-15T02:52:47;3.83;;;3.50;;
11568;SDS011;5840;46.894;15.542;2022-07-15T02:55:15;3.07;;;2.87;;
11568;SDS011;5840;46.894;15.542;2022-07-15T02:57:42;3.20;;;3.00;;
11568;SDS011;5840;46.894;15.542;2022-07-15T03:00:10;3.20;;;3.00;;
11568;SDS011;5840;46.894;15.542;2022-07-15T03:02:40;3.40;;;3.20;;
11568;SDS011;5840;46.894;15.542;2022-07-15T03:05:07;3.40;;;3.10;;
11568;SDS011;5840;46.894;15.542;2022-07-15T03:07:36;3.47;;;3.23;;
11568;SDS011;5840;46.894;15.542;2022-07-15T03:10:04;3.60;;;3.30;;
11568;SDS011;5840;46.894;15.542;2022-07-15T03:12:32;2.97;;;2.77;;
11568;SDS011;5840;46.894;15.542;2022-07-15T03:14:59;3.07;;;2.70;;
11568;SDS011;5840;46.894;15.542;2022-07-15T03:17:27;3.50;;;3.30;;
11568;SDS011;5840;46.894;15.542;2022-07-15T03:19:55;3.37;;;3.07;;
11568;SDS011;5840;46.894;15.542;2022-07-15T03:22:22;3.60;;;3.40;;
11568;SDS011;5840;46.894;15.542;2022-07-15T03:24:50;3.50;;;3.20;;
11568;SDS011;5840;46.894;15.542;2022-07-15T03:27:17;3.00;;;2.80;;
11568;SDS011;5840;46.894;15.542;2022-07-15T03:29:44;2.97;;;2.70;;
11568;SDS011;5840;46.894;15.542;2022-07-15T03:32:11;3.20;;;3.00;;
11568;SDS011;5840;46.894;15.542;2022-07-15T03:34:41;3.27;;;3.00;;
11568;SDS011;5840;46.894;15.542;2022-07-15T03:37:10;3.20;;;3.00;;
11568;SDS011;5840;46.894;15.542;2022-07-15T03:39:37;3.20;;;3.00;;
11568;SDS011;5840;46.894;15.542;2022-07-15T03:42:04;3.30;;;3.10;;
11568;SDS011;5840;46.894;15.542;2022-07-15T03:44:31;3.80;;;3.50;;
11568;SDS011;5840;46.894;15.542;2022-07-15T03:46:58;3.83;;;3.53;;
11568;SDS011;5840;46.894;15.542;2022-07-15T03:49:25;3.00;;;2.80;;
11568;SDS011;5840;46.894;15.542;2022-07-15T03:51:52;3.70;;;3.50;;
11568;SDS011;5840;46.894;15.542;2022-07-15T03:54:21;4.00;;;3.80;;
11568;SDS011;5840;46.894;15.542;2022-07-15T03:56:47;3.90;;;3.70;;
11568;SDS011;5840;46.894;15.542;2022-07-15T03:59:14;3.97;;;3.73;;
11568;SDS011;5840;46.894;15.542;2022-07-15T04:01:42;3.77;;;3.47;;
11568;SDS011;5840;46.894;15.542;2022-07-15T04:04:09;3.87;;;3.57;;
11568;SDS011;5840;46.894;15.542;2022-07-15T04:06:37;3.57;;;3.30;;
11568;SDS011;5840;46.894;15.542;2022-07-15T04:09:04;3.40;;;3.20;;
11568;SDS011;5840;46.894;15.542;2022-07-15T04:11:32;3.53;;;3.30;;
11568;SDS011;5840;46.894;15.542;2022-07-15T04:13:59;4.63;;;4.23;;
11568;SDS011;5840;46.894;15.542;2022-07-15T04:16:26;3.80;;;3.60;;
11568;SDS011;5840;46.894;15.542;2022-07-15T04:18:53;4.73;;;4.40;;
11568;SDS011;5840;46.894;15.542;2022-07-15T04:21:21;5.67;;;5.17;;
11568;SDS011;5840;46.894;15.542;2022-07-15T04:23:48;4.87;;;4.40;;
11568;SDS011;5840;46.894;15.542;2022-07-15T04:26:14;4.47;;;4.17;;
11568;SDS011;5840;46.894;15.542;2022-07-15T04:28:43;4.50;;;4.20;;
11568;SDS011;5840;46.894;15.542;2022-07-15T04:31:10;5.63;;;5.13;;
11568;SDS011;5840;46.894;15.542;2022-07-15T04:33:37;5.27;;;4.83;;
11568;SDS011;5840;46.894;15.542;2022-07-15T04:36:04;4.40;;;4.00;;
11568;SDS011;5840;46.894;15.542;2022-07-15T04:38:31;4.40;;;4.00;;
11568;SDS011;5840;46.894;15.542;2022-07-15T04:40:58;4.53;;;4.23;;
11568;SDS011;5840;46.894;15.542;2022-07-15T04:43:25;4.33;;;4.00;;
11568;SDS011;5840;46.894;15.542;2022-07-15T04:45:53;5.00;;;4.60;;
11568;SDS011;5840;46.894;15.542;2022-07-15T04:48:20;5.20;;;4.80;;
11568;SDS011;5840;46.894;15.542;2022-07-15T04:51:04;4.80;;;4.40;;
11568;SDS011;5840;46.894;15.542;2022-07-15T04:53:31;5.17;;;4.87;;
11568;SDS011;5840;46.894;15.542;2022-07-15T04:55:58;5.53;;;5.13;;
11568;SDS011;5840;46.894;15.542;2022-07-15T04:58:25;5.00;;;4.70;;
11568;SDS011;5840;46.894;15.542;2022-07-15T05:00:53;5.57;;;5.17;;
11568;SDS011;5840;46.894;15.542;2022-07-15T05:03:20;5.43;;;5.03;;
11568;SDS011;5840;46.894;15.542;2022-07-15T05:05:48;4.80;;;4.50;;
11568;SDS011;5840;46.894;15.542;2022-07-15T05:08:15;5.03;;;4.63;;
11568;SDS011;5840;46.894;15.542;2022-07-15T05:10:42;5.10;;;4.80;;
11568;SDS011;5840;46.894;15.542;2022-07-15T05:13:09;5.37;;;4.97;;
11568;SDS011;5840;46.894;15.542;2022-07-15T05:15:36;4.73;;;4.43;;
11568;SDS011;5840;46.894;15.542;2022-07-15T05:18:04;4.70;;;4.30;;
11568;SDS011;5840;46.894;15.542;2022-07-15T05:20:31;5.23;;;4.77;;
11568;SDS011;5840;46.894;15.542;2022-07-15T05:22:58;5.60;;;5.10;;
11568;SDS011;5840;46.894;15.542;2022-07-15T05:25:25;5.17;;;4.87;;
11568;SDS011;5840;46.894;15.542;2022-07-15T05:27:52;5.00;;;4.70;;
11568;SDS011;5840;46.894;15.542;2022-07-15T05:30:20;4.97;;;4.67;;
11568;SDS011;5840;46.894;15.542;2022-07-15T05:32:47;5.60;;;5.20;;
11568;SDS011;5840;46.894;15.542;2022-07-15T05:35:15;5.63;;;5.23;;
11568;SDS011;5840;46.894;15.542;2022-07-15T05:37:42;7.10;;;6.27;;
11568;SDS011;5840;46.894;15.542;2022-07-15T05:40:10;8.40;;;6.03;;
11568;SDS011;5840;46.894;15.542;2022-07-15T05:42:40;7.10;;;6.30;;
11568;SDS011;5840;46.894;15.542;2022-07-15T05:45:07;6.30;;;5.80;;
11568;SDS011;5840;46.894;15.542;2022-07-15T05:47:35;5.80;;;5.30;;
11568;SDS011;5840;46.894;15.542;2022-07-15T05:50:02;5.47;;;5.17;;
11568;SDS011;5840;46.894;15.542;2022-07-15T05:52:30;5.70;;;5.20;;
11568;SDS011;5840;46.894;15.542;2022-07-15T05:54:57;5.33;;;4.93;;
11568;SDS011;5840;46.894;15.542;2022-07-15T05:57:25;5.07;;;4.77;;
11568;SDS011;5840;46.894;15.542;2022-07-15T05:59:52;5.03;;;4.73;;
11568;SDS011;5840;46.894;15.542;2022-07-15T06:02:18;5.70;;;5.20;;
11568;SDS011;5840;46.894;15.542;2022-07-15T06:04:45;4.60;;;4.30;;
11568;SDS011;5840;46.894;15.542;2022-07-15T06:07:12;4.83;;;4.50;;
11568;SDS011;5840;46.894;15.542;2022-07-15T06:09:41;5.53;;;4.97;;
11568;SDS011;5840;46.894;15.542;2022-07-15T06:12:07;5.03;;;4.63;;
11568;SDS011;5840;46.894;15.542;2022-07-15T06:14:35;5.57;;;5.00;;
11568;SDS011;5840;46.894;15.542;2022-07-15T06:17:02;6.27;;;5.70;;
11568;SDS011;5840;46.894;15.542;2022-07-15T06:19:29;4.97;;;4.67;;
11568;SDS011;5840;46.894;15.542;2022-07-15T06:21:56;5.73;;;5.23;;
11568;SDS011;5840;46.894;15.542;2022-07-15T06:24:24;5.50;;;5.00;;
11568;SDS011;5840;46.894;15.542;2022-07-15T06:26:53;5.07;;;4.77;;
11568;SDS011;5840;46.894;15.542;2022-07-15T06:29:20;5.23;;;4.77;;
11568;SDS011;5840;46.894;15.542;2022-07-15T06:31:47;5.50;;;4.90;;
11568;SDS011;5840;46.894;15.542;2022-07-15T06:34:14;5.77;;;5.30;;
11568;SDS011;5840;46.894;15.542;2022-07-15T06:36:41;5.30;;;4.80;;
11568;SDS011;5840;46.894;15.542;2022-07-15T06:39:08;5.40;;;5.00;;
11568;SDS011;5840;46.894;15.542;2022-07-15T06:41:36;6.17;;;4.70;;
11568;SDS011;5840;46.894;15.542;2022-07-15T06:44:05;5.17;;;4.77;;
11568;SDS011;5840;46.894;15.542;2022-07-15T06:46:31;4.80;;;4.50;;
11568;SDS011;5840;46.894;15.542;2022-07-15T06:48:58;4.77;;;4.47;;
11568;SDS011;5840;46.894;15.542;2022-07-15T06:51:25;4.40;;;4.10;;
11568;SDS011;5840;46.894;15.542;2022-07-15T06:53:52;4.30;;;4.00;;
11568;SDS011;5840;46.894;15.542;2022-07-15T06:56:19;4.10;;;3.70;;
11568;SDS011;5840;46.894;15.542;2022-07-15T06:58:46;4.50;;;4.13;;
11568;SDS011;5840;46.894;15.542;2022-07-15T07:01:14;4.50;;;3.93;;
11568;SDS011;5840;46.894;15.542;2022-07-15T07:03:41;4.60;;;4.20;;
11568;SDS011;5840;46.894;15.542;2022-07-15T07:06:08;4.40;;;4.10;;
11568;SDS011;5840;46.894;15.542;2022-07-15T07:08:35;4.43;;;4.00;;
11568;SDS011;5840;46.894;15.542;2022-07-15T07:11:02;5.63;;;4.30;;
11568;SDS011;5840;46.894;15.542;2022-07-15T07:13:29;5.33;;;4.23;;
11568;SDS011;5840;46.894;15.542;2022-07-15T07:15:56;4.93;;;4.63;;
11568;SDS011;5840;46.894;15.542;2022-07-15T07:18:25;5.23;;;4.83;;
11568;SDS011;5840;46.894;15.542;2022-07-15T07:20:52;4.57;;;4.17;;
11568;SDS011;5840;46.894;15.542;2022-07-15T07:23:19;4.60;;;4.30;;
11568;SDS011;5840;46.894;15.542;2022-07-15T07:25:48;4.03;;;3.73;;
11568;SDS011;5840;46.894;15.542;2022-07-15T07:28:15;4.50;;;4.20;;
11568;SDS011;5840;46.894;15.542;2022-07-15T07:30:42;4.50;;;4.10;;
11568;SDS011;5840;46.894;15.542;2022-07-15T07:33:10;6.63;;;4.00;;
11568;SDS011;5840;46.894;15.542;2022-07-15T07:35:39;4.23;;;3.93;;
11568;SDS011;5840;46.894;15.542;2022-07-15T07:38:07;4.13;;;3.63;;
11568;SDS011;5840;46.894;15.542;2022-07-15T07:40:35;4.40;;;4.00;;
11568;SDS011;5840;46.894;15.542;2022-07-15T07:43:02;3.67;;;3.40;;
11568;SDS011;5840;46.894;15.542;2022-07-15T07:45:29;4.77;;;3.90;;
11568;SDS011;5840;46.894;15.542;2022-07-15T07:47:56;3.77;;;3.27;;
11568;SDS011;5840;46.894;15.542;2022-07-15T07:50:23;3.50;;;3.20;;
11568;SDS011;5840;46.894;15.542;2022-07-15T07:52:52;3.90;;;3.03;;
11568;SDS011;5840;46.894;15.542;2022-07-15T07:55:19;3.17;;;2.97;;
11568;SDS011;5840;46.894;15.542;2022-07-15T07:57:46;3.30;;;3.10;;
11568;SDS011;5840;46.894;15.542;2022-07-15T08:00:14;3.30;;;3.10;;
11568;SDS011;5840;46.894;15.542;2022-07-15T08:02:41;3.80;;;3.50;;
11568;SDS011;5840;46.894;15.542;2022-07-15T08:05:09;3.80;;;3.60;;
11568;SDS011;5840;46.894;15.542;2022-07-15T08:07:36;3.63;;;3.43;;
11568;SDS011;5840;46.894;15.542;2022-07-15T08:10:05;3.27;;;3.10;;
11568;SDS011;5840;46.894;15.542;2022-07-15T08:12:33;3.73;;;3.50;;
11568;SDS011;5840;46.894;15.542;2022-07-15T08:15:01;3.57;;;3.37;;
11568;SDS011;5840;46.894;15.542;2022-07-15T08:17:30;4.20;;;3.73;;
11568;SDS011;5840;46.894;15.542;2022-07-15T08:19:57;3.53;;;3.33;;
11568;SDS011;5840;46.894;15.542;2022-07-15T08:22:24;3.30;;;3.10;;
11568;SDS011;5840;46.894;15.542;2022-07-15T08:24:51;3.30;;;3.10;;
11568;SDS011;5840;46.894;15.542;2022-07-15T08:27:19;3.40;;;3.20;;
11568;SDS011;5840;46.894;15.542;2022-07-15T08:29:46;3.83;;;3.63;;
11568;SDS011;5840;46.894;15.542;2022-07-15T08:32:13;4.30;;;4.00;;
11568;SDS011;5840;46.894;15.542;2022-07-15T08:34:40;3.47;;;3.27;;
11568;SDS011;5840;46.894;15.542;2022-07-15T08:37:07;3.60;;;3.40;;
11568;SDS011;5840;46.894;15.542;2022-07-15T08:39:34;3.50;;;3.30;;
11568;SDS011;5840;46.894;15.542;2022-07-15T08:42:02;3.10;;;2.90;;
11568;SDS011;5840;46.894;15.542;2022-07-15T08:44:31;4.30;;;3.67;;
11568;SDS011;5840;46.894;15.542;2022-07-15T08:47:01;3.70;;;3.50;;
11568;SDS011;5840;46.894;15.542;2022-07-15T08:49:31;3.33;;;3.13;;
11568;SDS011;5840;46.894;15.542;2022-07-15T08:51:59;4.00;;;3.70;;
11568;SDS011;5840;46.894;15.542;2022-07-15T08:54:28;3.63;;;3.43;;
11568;SDS011;5840;46.894;15.542;2022-07-15T08:56:55;3.97;;;3.43;;
11568;SDS011;5840;46.894;15.542;2022-07-15T08:59:23;3.80;;;3.40;;
11568;SDS011;5840;46.894;15.542;2022-07-15T09:01:51;4.27;;;3.53;;
11568;SDS011;5840;46.894;15.542;2022-07-15T09:04:19;4.00;;;3.70;;
11568;SDS011;5840;46.894;15.542;2022-07-15T09:06:47;5.57;;;3.73;;
11568;SDS011;5840;46.894;15.542;2022-07-15T09:09:24;4.00;;;3.70;;
11568;SDS011;5840;46.894;15.542;2022-07-15T09:11:58;3.17;;;2.97;;
11568;SDS011;5840;46.894;15.542;2022-07-15T09:14:27;3.83;;;3.53;;
11568;SDS011;5840;46.894;15.542;2022-07-15T09:17:06;3.30;;;3.10;;
11568;SDS011;5840;46.894;15.542;2022-07-15T09:19:58;3.50;;;3.30;;
11568;SDS011;5840;46.894;15.542;2022-07-15T09:22:28;3.33;;;3.20;;
11568;SDS011;5840;46.894;15.542;2022-07-15T09:25:04;3.30;;;3.10;;
11568;SDS011;5840;46.894;15.542;2022-07-15T09:27:33;3.70;;;3.40;;
11568;SDS011;5840;46.894;15.542;2022-07-15T09:33:07;3.37;;;3.17;;
11568;SDS011;5840;46.894;15.542;2022-07-15T09:35:55;3.90;;;3.60;;
11568;SDS011;5840;46.894;15.542;2022-07-15T09:38:29;6.20;;;3.60;;
11568;SDS011;5840;46.894;15.542;2022-07-15T09:40:58;3.93;;;3.73;;
11568;SDS011;5840;46.894;15.542;2022-07-15T09:43:25;3.40;;;3.20;;
11568;SDS011;5840;46.894;15.542;2022-07-15T09:45:56;3.93;;;3.63;;
11568;SDS011;5840;46.894;15.542;2022-07-15T09:48:25;4.60;;;4.20;;
11568;SDS011;5840;46.894;15.542;2022-07-15T09:50:57;4.33;;;3.80;;
11568;SDS011;5840;46.894;15.542;2022-07-15T09:53:25;4.20;;;3.87;;
11568;SDS011;5840;46.894;15.542;2022-07-15T09:55:52;4.00;;;3.70;;
11568;SDS011;5840;46.894;15.542;2022-07-15T09:58:20;4.20;;;3.97;;
11568;SDS011;5840;46.894;15.542;2022-07-15T10:00:47;3.87;;;3.67;;
11568;SDS011;5840;46.894;15.542;2022-07-15T10:03:16;4.23;;;3.83;;
11568;SDS011;5840;46.894;15.542;2022-07-15T10:05:44;4.13;;;3.93;;
11568;SDS011;5840;46.894;15.542;2022-07-15T10:08:16;3.63;;;3.33;;
11568;SDS011;5840;46.894;15.542;2022-07-15T10:10:43;4.03;;;3.70;;
11568;SDS011;5840;46.894;15.542;2022-07-15T10:13:16;4.90;;;4.40;;
11568;SDS011;5840;46.894;15.542;2022-07-15T10:16:04;4.50;;;4.10;;
11568;SDS011;5840;46.894;15.542;2022-07-15T10:18:45;4.60;;;4.20;;
11568;SDS011;5840;46.894;15.542;2022-07-15T10:21:26;4.20;;;3.90;;
11568;SDS011;5840;46.894;15.542;2022-07-15T10:27:01;4.47;;;4.10;;
11568;SDS011;5840;46.894;15.542;2022-07-15T10:29:36;4.20;;;3.90;;
11568;SDS011;5840;46.894;15.542;2022-07-15T10:32:04;4.37;;;4.10;;
11568;SDS011;5840;46.894;15.542;2022-07-15T10:34:31;4.60;;;4.30;;
11568;SDS011;5840;46.894;15.542;2022-07-15T10:37:02;3.80;;;3.60;;
11568;SDS011;5840;46.894;15.542;2022-07-15T10:42:20;4.60;;;4.20;;
11568;SDS011;5840;46.894;15.542;2022-07-15T10:44:48;4.53;;;4.10;;
11568;SDS011;5840;46.894;15.542;2022-07-15T10:47:28;4.50;;;4.20;;
11568;SDS011;5840;46.894;15.542;2022-07-15T10:49:55;4.27;;;4.07;;
11568;SDS011;5840;46.894;15.542;2022-07-15T10:52:24;4.67;;;4.27;;
11568;SDS011;5840;46.894;15.542;2022-07-15T10:54:59;4.70;;;4.33;;
11568;SDS011;5840;46.894;15.542;2022-07-15T10:57:51;4.40;;;4.10;;
11568;SDS011;5840;46.894;15.542;2022-07-15T11:00:28;4.47;;;4.17;;
11568;SDS011;5840;46.894;15.542;2022-07-15T11:03:01;4.30;;;4.00;;
11568;SDS011;5840;46.894;15.542;2022-07-15T11:05:30;4.47;;;4.07;;
11568;SDS011;5840;46.894;15.542;2022-07-15T11:07:58;4.43;;;4.07;;
11568;SDS011;5840;46.894;15.542;2022-07-15T11:10:25;4.67;;;4.27;;
11568;SDS011;5840;46.894;15.542;2022-07-15T11:12:59;7.80;;;4.47;;
11568;SDS011;5840;46.894;15.542;2022-07-15T11:15:29;4.70;;;4.30;;
11568;SDS011;5840;46.894;15.542;2022-07-15T11:17:57;4.07;;;3.77;;
11568;SDS011;5840;46.894;15.542;2022-07-15T11:20:29;4.30;;;4.00;;
11568;SDS011;5840;46.894;15.542;2022-07-15T11:23:02;5.30;;;4.60;;
11568;SDS011;5840;46.894;15.542;2022-07-15T11:25:31;4.17;;;3.87;;
11568;SDS011;5840;46.894;15.542;2022-07-15T11:28:04;4.47;;;3.83;;
11568;SDS011;5840;46.894;15.542;2022-07-15T11:30:34;4.13;;;3.83;;
11568;SDS011;5840;46.894;15.542;2022-07-15T11:33:04;4.20;;;3.90;;
11568;SDS011;5840;46.894;15.542;2022-07-15T11:35:42;4.63;;;4.33;;
11568;SDS011;5840;46.894;15.542;2022-07-15T11:38:15;4.17;;;3.77;;
11568;SDS011;5840;46.894;15.542;2022-07-15T11:40:48;3.93;;;3.70;;
11568;SDS011;5840;46.894;15.542;2022-07-15T11:43:34;4.10;;;3.90;;
11568;SDS011;5840;46.894;15.542;2022-07-15T11:46:19;4.27;;;3.97;;
11568;SDS011;5840;46.894;15.542;2022-07-15T11:48:48;4.53;;;4.23;;
11568;SDS011;5840;46.894;15.542;2022-07-15T11:51:16;4.70;;;4.30;;
11568;SDS011;5840;46.894;15.542;2022-07-15T11:53:50;3.90;;;3.70;;
11568;SDS011;5840;46.894;15.542;2022-07-15T11:56:17;4.40;;;4.10;;
11568;SDS011;5840;46.894;15.542;2022-07-15T11:58:45;4.50;;;4.20;;
11568;SDS011;5840;46.894;15.542;2022-07-15T12:01:18;4.40;;;4.00;;
11568;SDS011;5840;46.894;15.542;2022-07-15T12:03:48;4.57;;;4.10;;
11568;SDS011;5840;46.894;15.542;2022-07-15T12:06:16;4.73;;;4.30;;
11568;SDS011;5840;46.894;15.542;2022-07-15T12:08:46;4.97;;;4.67;;
11568;SDS011;5840;46.894;15.542;2022-07-15T12:11:17;4.90;;;4.40;;
11568;SDS011;5840;46.894;15.542;2022-07-15T12:13:48;4.53;;;4.23;;
11568;SDS011;5840;46.894;15.542;2022-07-15T12:16:17;4.80;;;4.50;;
11568;SDS011;5840;46.894;15.542;2022-07-15T12:18:46;4.97;;;4.60;;
11568;SDS011;5840;46.894;15.542;2022-07-15T12:21:15;4.93;;;4.63;;
11568;SDS011;5840;46.894;15.542;2022-07-15T12:23:56;4.97;;;4.50;;
11568;SDS011;5840;46.894;15.542;2022-07-15T12:26:29;4.93;;;4.60;;
11568;SDS011;5840;46.894;15.542;2022-07-15T12:28:57;5.13;;;4.60;;
11568;SDS011;5840;46.894;15.542;2022-07-15T12:31:26;4.80;;;4.47;;
11568;SDS011;5840;46.894;15.542;2022-07-15T12:33:55;4.80;;;4.50;;
11568;SDS011;5840;46.894;15.542;2022-07-15T12:36:23;5.10;;;4.80;;
11568;SDS011;5840;46.894;15.542;2022-07-15T12:39:04;5.57;;;5.07;;
11568;SDS011;5840;46.894;15.542;2022-07-15T12:41:34;4.60;;;4.30;;
11568;SDS011;5840;46.894;15.542;2022-07-15T12:44:03;5.00;;;4.70;;
11568;SDS011;5840;46.894;15.542;2022-07-15T12:49:38;5.10;;;4.80;;
11568;SDS011;5840;46.894;15.542;2022-07-15T12:52:16;5.83;;;5.20;;
11568;SDS011;5840;46.894;15.542;2022-07-15T12:54:46;5.57;;;5.00;;
11568;SDS011;5840;46.894;15.542;2022-07-15T12:57:19;6.73;;;5.37;;
11568;SDS011;5840;46.894;15.542;2022-07-15T12:59:51;5.87;;;5.43;;
11568;SDS011;5840;46.894;15.542;2022-07-15T13:02:19;5.57;;;5.10;;
11568;SDS011;5840;46.894;15.542;2022-07-15T13:04:46;5.37;;;5.00;;
11568;SDS011;5840;46.894;15.542;2022-07-15T13:07:14;6.17;;;5.47;;
11568;SDS011;5840;46.894;15.542;2022-07-15T13:09:41;5.47;;;4.97;;
11568;SDS011;5840;46.894;15.542;2022-07-15T13:12:08;5.70;;;5.30;;
11568;SDS011;5840;46.894;15.542;2022-07-15T13:14:37;7.10;;;4.97;;
11568;SDS011;5840;46.894;15.542;2022-07-15T13:17:05;6.30;;;5.70;;
11568;SDS011;5840;46.894;15.542;2022-07-15T13:19:32;5.87;;;5.27;;
11568;SDS011;5840;46.894;15.542;2022-07-15T13:22:00;6.23;;;5.57;;
11568;SDS011;5840;46.894;15.542;2022-07-15T13:24:27;6.07;;;5.67;;
11568;SDS011;5840;46.894;15.542;2022-07-15T13:26:54;6.00;;;5.63;;
11568;SDS011;5840;46.894;15.542;2022-07-15T13:29:21;6.70;;;6.17;;
11568;SDS011;5840;46.894;15.542;2022-07-15T13:31:49;6.40;;;6.00;;
11568;SDS011;5840;46.894;15.542;2022-07-15T13:34:17;6.53;;;6.13;;
11568;SDS011;5840;46.894;15.542;2022-07-15T13:36:44;7.20;;;6.50;;
11568;SDS011;5840;46.894;15.542;2022-07-15T13:39:10;6.97;;;6.37;;
11568;SDS011;5840;46.894;15.542;2022-07-15T13:41:37;7.37;;;6.67;;
11568;SDS011;5840;46.894;15.542;2022-07-15T13:44:04;6.87;;;6.30;;
11568;SDS011;5840;46.894;15.542;2022-07-15T13:46:32;7.63;;;7.03;;
11568;SDS011;5840;46.894;15.542;2022-07-15T13:49:00;7.67;;;7.03;;
11568;SDS011;5840;46.894;15.542;2022-07-15T13:51:27;6.97;;;6.37;;
11568;SDS011;5840;46.894;15.542;2022-07-15T13:53:53;7.30;;;6.77;;
11568;SDS011;5840;46.894;15.542;2022-07-15T13:56:22;6.70;;;6.20;;
11568;SDS011;5840;46.894;15.542;2022-07-15T13:58:50;7.00;;;6.60;;
11568;SDS011;5840;46.894;15.542;2022-07-15T14:01:17;6.50;;;6.00;;
11568;SDS011;5840;46.894;15.542;2022-07-15T14:03:43;6.53;;;6.13;;
11568;SDS011;5840;46.894;15.542;2022-07-15T14:06:12;7.13;;;6.53;;
11568;SDS011;5840;46.894;15.542;2022-07-15T14:08:39;7.07;;;6.43;;
11568;SDS011;5840;46.894;15.542;2022-07-15T14:11:06;6.67;;;6.27;;
11568;SDS011;5840;46.894;15.542;2022-07-15T14:13:33;7.50;;;6.77;;
11568;SDS011;5840;46.894;15.542;2022-07-15T14:16:00;7.23;;;6.63;;
11568;SDS011;5840;46.894;15.542;2022-07-15T14:18:26;7.13;;;6.63;;
11568;SDS011;5840;46.894;15.542;2022-07-15T14:21:24;7.13;;;6.63;;
11568;SDS011;5840;46.894;15.542;2022-07-15T14:23:50;7.40;;;6.80;;
11568;SDS011;5840;46.894;15.542;2022-07-15T14:26:17;7.87;;;7.23;;
11568;SDS011;5840;46.894;15.542;2022-07-15T14:28:44;8.10;;;7.50;;
11568;SDS011;5840;46.894;15.542;2022-07-15T14:31:11;8.40;;;7.80;;
11568;SDS011;5840;46.894;15.542;2022-07-15T14:33:38;7.90;;;7.40;;
11568;SDS011;5840;46.894;15.542;2022-07-15T14:36:06;8.20;;;7.60;;
11568;SDS011;5840;46.894;15.542;2022-07-15T14:38:35;7.87;;;7.20;;
11568;SDS011;5840;46.894;15.542;2022-07-15T14:41:03;8.13;;;7.57;;
11568;SDS011;5840;46.894;15.542;2022-07-15T14:43:31;8.60;;;7.83;;
11568;SDS011;5840;46.894;15.542;2022-07-15T14:45:57;8.20;;;7.70;;
11568;SDS011;5840;46.894;15.542;2022-07-15T14:48:24;9.03;;;8.40;;
11568;SDS011;5840;46.894;15.542;2022-07-15T14:50:52;8.57;;;7.97;;
11568;SDS011;5840;46.894;15.542;2022-07-15T14:53:19;9.83;;;8.80;;
11568;SDS011;5840;46.894;15.542;2022-07-15T14:55:48;9.27;;;8.57;;
11568;SDS011;5840;46.894;15.542;2022-07-15T14:58:15;8.40;;;7.83;;
11568;SDS011;5840;46.894;15.542;2022-07-15T15:00:44;8.80;;;8.20;;
11568;SDS011;5840;46.894;15.542;2022-07-15T15:03:14;8.93;;;8.30;;
11568;SDS011;5840;46.894;15.542;2022-07-15T15:05:41;8.10;;;7.60;;
11568;SDS011;5840;46.894;15.542;2022-07-15T15:08:08;10.53;;;9.73;;
11568;SDS011;5840;46.894;15.542;2022-07-15T15:10:35;10.30;;;9.57;;